Time;durP1;ratioP1;P1;durP2;ratioP2;P2;SDS_P1;SDS_P2;PMS_P1;PMS_P2;Temp;Humidity;BMP_temperature;BMP_pressure;BME280_temperature;BME280_humidity;BME280_pressure;Samples;Min_cycle;Max_cycle;Signal;HPM_P1;HPM_P2
2021/06/11 00:01:03;;;;;;;6.38;4.22;;;;;;;;;;5155101;27;20038;-62
2021/06/11 00:03:29;;;;;;;6.68;4.30;;;;;;;;;;5137159;27;20054;-62
2021/06/11 00:05:55;;;;;;;8.85;4.28;;;;;;;;;;5155317;27;20109;-63
2021/06/11 00:08:21;;;;;;;5.97;3.63;;;;;;;;;;5155442;27;20042;-62
2021/06/11 00:10:48;;;;;;;7.72;4.05;;;;;;;;;;5155719;27;20066;-63
2021/06/11 00:13:14;;;;;;;4.85;3.40;;;;;;;;;;5155898;27;20031;-63
2021/06/11 00:15:40;;;;;;;7.05;4.28;;;;;;;;;;5155903;27;20068;-63
2021/06/11 00:18:06;;;;;;;7.35;5.00;;;;;;;;;;5156055;27;20038;-63
2021/06/11 00:20:33;;;;;;;7.95;5.32;;;;;;;;;;5156247;27;20022;-62
2021/06/11 00:22:59;;;;;;;6.68;4.07;;;;;;;;;;5155971;27;20392;-63
2021/06/11 00:25:25;;;;;;;6.93;3.75;;;;;;;;;;5156032;27;20054;-64
2021/06/11 00:27:54;;;;;;;5.22;3.40;;;;;;;;;;5155419;27;20049;-63
2021/06/11 00:30:21;;;;;;;7.03;3.50;;;;;;;;;;5155876;27;20030;-63
2021/06/11 00:32:48;;;;;;;7.32;4.15;;;;;;;;;;5155767;27;20026;-62
2021/06/11 00:35:14;;;;;;;8.30;3.70;;;;;;;;;;5155551;27;20033;-62
2021/06/11 00:37:41;;;;;;;5.65;3.67;;;;;;;;;;5155152;27;20061;-63
2021/06/11 00:40:08;;;;;;;6.43;3.70;;;;;;;;;;5155744;27;20058;-63
2021/06/11 00:42:34;;;;;;;6.15;3.58;;;;;;;;;;5154741;27;20084;-63
2021/06/11 00:45:00;;;;;;;6.45;3.95;;;;;;;;;;5155103;27;20027;-63
2021/06/11 00:47:26;;;;;;;6.63;3.70;;;;;;;;;;5152733;27;20026;-62
2021/06/11 00:49:52;;;;;;;8.00;3.95;;;;;;;;;;5154685;27;20549;-62
2021/06/11 00:52:18;;;;;;;9.65;3.55;;;;;;;;;;5154931;27;20023;-62
2021/06/11 00:54:45;;;;;;;5.88;3.20;;;;;;;;;;5154909;27;20071;-62
2021/06/11 00:57:12;;;;;;;6.65;3.60;;;;;;;;;;5154926;27;20104;-63
2021/06/11 00:59:43;;;;;;;5.05;3.60;;;;;;;;;;5154938;27;20023;-63
2021/06/11 01:02:10;;;;;;;7.00;3.65;;;;;;;;;;5155020;27;20030;-63
2021/06/11 01:04:36;;;;;;;4.78;3.15;;;;;;;;;;5155032;27;20022;-63
2021/06/11 01:07:02;;;;;;;5.80;3.40;;;;;;;;;;5154834;27;20038;-63
2021/06/11 01:09:30;;;;;;;7.43;3.55;;;;;;;;;;5139499;27;20489;-62
2021/06/11 01:11:57;;;;;;;6.15;3.50;;;;;;;;;;5154555;27;20023;-63
2021/06/11 01:14:23;;;;;;;5.93;3.40;;;;;;;;;;5154723;27;20031;-63
2021/06/11 01:16:50;;;;;;;5.55;3.28;;;;;;;;;;5154836;27;20070;-62
2021/06/11 01:19:18;;;;;;;7.68;2.97;;;;;;;;;;5154439;27;20019;-62
2021/06/11 01:21:50;;;;;;;8.15;3.35;;;;;;;;;;5154969;27;20115;-62
2021/06/11 01:24:25;;;;;;;8.93;3.30;;;;;;;;;;5154656;27;20026;-62
2021/06/11 01:26:52;;;;;;;6.22;3.40;;;;;;;;;;5154331;27;20058;-62
2021/06/11 01:29:20;;;;;;;9.60;3.50;;;;;;;;;;5154557;27;20031;-63
2021/06/11 01:31:49;;;;;;;5.45;3.10;;;;;;;;;;5154404;27;20477;-63
2021/06/11 01:34:20;;;;;;;7.18;3.50;;;;;;;;;;5154455;27;20394;-63
2021/06/11 01:36:47;;;;;;;5.40;3.25;;;;;;;;;;5154120;27;20039;-63
2021/06/11 01:39:15;;;;;;;6.65;3.45;;;;;;;;;;5154380;27;20025;-63
2021/06/11 01:41:41;;;;;;;6.68;3.30;;;;;;;;;;5153751;27;20035;-63
2021/06/11 01:44:08;;;;;;;6.15;2.95;;;;;;;;;;5154228;27;20023;-63
2021/06/11 01:46:35;;;;;;;6.22;3.20;;;;;;;;;;5135790;27;20023;-62
2021/06/11 01:49:02;;;;;;;6.15;3.28;;;;;;;;;;5150872;27;20072;-62
2021/06/11 01:51:29;;;;;;;6.20;3.60;;;;;;;;;;5153666;27;20105;-63
2021/06/11 01:53:55;;;;;;;7.03;3.63;;;;;;;;;;5153674;27;20101;-62
2021/06/11 01:56:22;;;;;;;5.93;3.20;;;;;;;;;;5135424;27;20109;-61
2021/06/11 01:58:49;;;;;;;7.30;3.00;;;;;;;;;;5153504;27;20031;-62
2021/06/11 02:01:17;;;;;;;8.05;3.05;;;;;;;;;;5153546;27;20030;-62
2021/06/11 02:03:43;;;;;;;5.10;2.97;;;;;;;;;;5153363;27;20478;-62
2021/06/11 02:06:10;;;;;;;7.70;3.13;;;;;;;;;;5153716;27;20466;-62
2021/06/11 02:08:36;;;;;;;4.75;2.97;;;;;;;;;;5153926;27;20031;-63
2021/06/11 02:11:03;;;;;;;5.75;3.00;;;;;;;;;;5153515;27;20018;-62
2021/06/11 02:13:29;;;;;;;4.68;3.10;;;;;;;;;;5133547;27;20115;-63
2021/06/11 02:15:56;;;;;;;6.20;2.78;;;;;;;;;;5152958;27;20022;-62
2021/06/11 02:18:22;;;;;;;5.63;2.85;;;;;;;;;;5153733;27;20031;-62
2021/06/11 02:20:52;;;;;;;5.85;3.17;;;;;;;;;;5153620;27;20011;-62
2021/06/11 02:23:18;;;;;;;7.82;3.10;;;;;;;;;;5153291;27;20109;-62
2021/06/11 02:25:44;;;;;;;6.50;3.08;;;;;;;;;;5153613;27;20057;-62
2021/06/11 02:28:14;;;;;;;6.32;2.83;;;;;;;;;;5153327;27;20087;-62
2021/06/11 02:30:40;;;;;;;8.00;3.13;;;;;;;;;;5153756;27;20086;-62
2021/06/11 02:33:07;;;;;;;5.00;2.88;;;;;;;;;;5153650;27;20018;-62
2021/06/11 02:35:33;;;;;;;6.47;2.83;;;;;;;;;;5153632;27;20052;-61
2021/06/11 02:37:59;;;;;;;9.52;2.78;;;;;;;;;;5153170;27;20593;-61
2021/06/11 02:40:25;;;;;;;5.47;3.00;;;;;;;;;;5153091;27;20018;-63
2021/06/11 02:42:54;;;;;;;7.15;2.75;;;;;;;;;;5153192;27;20050;-63
2021/06/11 02:45:25;;;;;;;11.60;2.83;;;;;;;;;;5153496;27;20443;-63
2021/06/11 02:48:05;;;;;;;4.68;2.80;;;;;;;;;;5153404;27;20066;-62
2021/06/11 02:50:32;;;;;;;6.07;2.95;;;;;;;;;;5153473;27;20061;-62
2021/06/11 02:53:01;;;;;;;5.63;2.70;;;;;;;;;;5153562;27;20407;-62
2021/06/11 02:55:28;;;;;;;6.85;2.90;;;;;;;;;;5153398;27;20544;-63
2021/06/11 02:58:03;;;;;;;7.47;2.72;;;;;;;;;;5153186;27;20027;-62
2021/06/11 03:00:31;;;;;;;4.53;2.70;;;;;;;;;;5152435;27;20473;-62
2021/06/11 03:03:00;;;;;;;4.78;2.42;;;;;;;;;;5131848;27;20031;-63
2021/06/11 03:05:26;;;;;;;5.18;2.80;;;;;;;;;;5131790;27;20489;-62
2021/06/11 03:07:56;;;;;;;4.18;2.35;;;;;;;;;;5133446;27;20743;-62
2021/06/11 03:10:24;;;;;;;3.95;2.28;;;;;;;;;;5152179;27;20023;-62
2021/06/11 03:12:50;;;;;;;9.43;2.80;;;;;;;;;;5152573;27;20027;-62
2021/06/11 03:15:16;;;;;;;6.95;2.63;;;;;;;;;;5152087;27;20033;-62
2021/06/11 03:17:51;;;;;;;5.40;2.50;;;;;;;;;;5152323;27;20023;-63
2021/06/11 03:20:19;;;;;;;4.53;2.50;;;;;;;;;;5151906;27;20071;-61
2021/06/11 03:23:12;;;;;;;7.18;2.40;;;;;;;;;;5151939;27;20466;-61
2021/06/11 03:25:47;;;;;;;4.15;2.47;;;;;;;;;;5128807;27;20023;-63
2021/06/11 03:28:18;;;;;;;7.38;2.70;;;;;;;;;;5151545;27;20382;-62
2021/06/11 03:30:45;;;;;;;7.93;2.67;;;;;;;;;;5152135;27;20023;-62
2021/06/11 03:33:13;;;;;;;5.28;2.70;;;;;;;;;;5152797;27;20015;-62
2021/06/11 03:35:48;;;;;;;4.88;2.55;;;;;;;;;;5152480;27;20026;-62
2021/06/11 03:38:18;;;;;;;4.20;2.70;;;;;;;;;;5153152;27;20525;-62
2021/06/11 03:40:46;;;;;;;5.38;2.78;;;;;;;;;;5152615;27;20023;-62
2021/06/11 03:43:12;;;;;;;4.55;2.50;;;;;;;;;;5152424;27;20035;-63
2021/06/11 03:45:40;;;;;;;7.00;2.60;;;;;;;;;;5152923;27;20037;-62
2021/06/11 03:48:07;;;;;;;5.47;2.40;;;;;;;;;;5150275;27;20026;-63
2021/06/11 03:50:33;;;;;;;7.75;2.67;;;;;;;;;;5132685;27;20143;-62
2021/06/11 03:53:00;;;;;;;3.70;2.20;;;;;;;;;;5141799;27;20015;-62
2021/06/11 03:55:28;;;;;;;4.47;2.40;;;;;;;;;;5152388;27;20031;-63
2021/06/11 03:58:17;;;;;;;5.00;2.60;;;;;;;;;;5152909;27;20015;-63
2021/06/11 04:00:43;;;;;;;4.47;2.60;;;;;;;;;;5091071;28;20431;-62
2021/06/11 04:03:09;;;;;;;8.20;2.53;;;;;;;;;;5141775;27;20122;-63
2021/06/11 04:05:36;;;;;;;5.65;2.15;;;;;;;;;;5152670;27;20032;-62
2021/06/11 04:08:06;;;;;;;6.80;2.50;;;;;;;;;;5152606;27;20015;-63
2021/06/11 04:10:35;;;;;;;5.75;2.10;;;;;;;;;;5152511;27;20067;-63
2021/06/11 04:13:08;;;;;;;6.32;1.92;;;;;;;;;;5152501;27;20483;-62
2021/06/11 04:15:35;;;;;;;5.18;2.30;;;;;;;;;;5151367;27;20460;-62
2021/06/11 04:18:03;;;;;;;5.18;2.55;;;;;;;;;;5152280;27;20023;-62
2021/06/11 04:20:29;;;;;;;4.18;2.13;;;;;;;;;;5152084;27;20030;-62
2021/06/11 04:22:57;;;;;;;5.22;2.35;;;;;;;;;;5153709;27;20027;-62
2021/06/11 04:25:27;;;;;;;3.80;1.90;;;;;;;;;;5155774;27;20489;-62
2021/06/11 04:27:54;;;;;;;9.43;2.28;;;;;;;;;;5137257;27;20034;-63
2021/06/11 04:30:20;;;;;;;4.70;2.30;;;;;;;;;;5156082;27;20027;-62
2021/06/11 04:32:48;;;;;;;3.97;2.05;;;;;;;;;;5155932;27;20065;-62
2021/06/11 04:35:14;;;;;;;3.70;1.80;;;;;;;;;;5155657;27;20025;-61
2021/06/11 04:37:40;;;;;;;4.53;2.20;;;;;;;;;;5155887;27;20492;-62
2021/06/11 04:40:07;;;;;;;3.42;1.95;;;;;;;;;;5155314;27;20054;-63
2021/06/11 04:42:34;;;;;;;4.90;1.95;;;;;;;;;;5154981;27;20113;-62
2021/06/11 04:45:00;;;;;;;4.18;2.10;;;;;;;;;;5155503;27;20019;-62
2021/06/11 04:47:29;;;;;;;5.25;2.70;;;;;;;;;;5153687;27;20038;-63
2021/06/11 04:49:55;;;;;;;5.05;2.05;;;;;;;;;;5136875;27;20086;-63
2021/06/11 04:52:21;;;;;;;3.70;1.85;;;;;;;;;;5155256;27;20138;-62
2021/06/11 04:54:48;;;;;;;6.97;2.13;;;;;;;;;;5155316;27;20086;-63
2021/06/11 04:57:14;;;;;;;15.43;2.75;;;;;;;;;;5155454;27;20097;-62
2021/06/11 04:59:40;;;;;;;9.20;2.05;;;;;;;;;;5155764;27;20025;-63
2021/06/11 05:02:06;;;;;;;7.13;2.50;;;;;;;;;;5136939;27;20196;-62
2021/06/11 05:04:32;;;;;;;13.32;2.40;;;;;;;;;;5155440;27;20027;-62
2021/06/11 05:06:59;;;;;;;5.82;2.40;;;;;;;;;;5155090;27;20027;-62
2021/06/11 05:09:25;;;;;;;6.82;2.35;;;;;;;;;;5155582;27;20496;-63
2021/06/11 05:11:52;;;;;;;8.70;2.38;;;;;;;;;;5154969;27;20469;-63
2021/06/11 05:14:18;;;;;;;7.90;2.20;;;;;;;;;;5155407;27;20058;-62
2021/06/11 05:16:44;;;;;;;8.40;3.22;;;;;;;;;;5154881;27;20026;-62
2021/06/11 05:19:10;;;;;;;10.07;2.58;;;;;;;;;;5146956;27;20050;-62
2021/06/11 05:21:36;;;;;;;10.13;2.28;;;;;;;;;;5154156;27;20385;-61
2021/06/11 05:24:02;;;;;;;9.07;2.80;;;;;;;;;;5155106;27;20359;-62
2021/06/11 05:26:28;;;;;;;6.88;2.55;;;;;;;;;;5154633;27;20030;-62
2021/06/11 05:28:54;;;;;;;6.65;2.40;;;;;;;;;;5154821;27;20033;-62
2021/06/11 05:31:20;;;;;;;8.38;3.00;;;;;;;;;;5135787;27;20015;-62
2021/06/11 05:33:46;;;;;;;16.20;3.28;;;;;;;;;;5153646;27;20022;-62
2021/06/11 05:36:12;;;;;;;13.60;3.72;;;;;;;;;;5154346;27;20015;-62
2021/06/11 05:38:38;;;;;;;12.55;4.00;;;;;;;;;;5153944;27;20409;-62
2021/06/11 05:41:04;;;;;;;10.77;3.60;;;;;;;;;;5153641;27;20057;-62
2021/06/11 05:43:31;;;;;;;15.82;3.67;;;;;;;;;;5154042;27;20042;-62
2021/06/11 05:45:58;;;;;;;10.57;3.58;;;;;;;;;;5154125;27;20031;-63
2021/06/11 05:48:24;;;;;;;13.18;3.28;;;;;;;;;;5151367;27;20026;-62
2021/06/11 05:50:50;;;;;;;11.90;3.25;;;;;;;;;;5135418;27;20474;-62
2021/06/11 05:53:22;;;;;;;9.68;3.17;;;;;;;;;;5133537;27;20015;-62
2021/06/11 05:55:48;;;;;;;10.37;3.10;;;;;;;;;;5133544;27;20138;-62
2021/06/11 05:58:14;;;;;;;6.63;3.08;;;;;;;;;;5114961;27;20030;-62
2021/06/11 06:00:40;;;;;;;5.93;2.97;;;;;;;;;;5133382;27;20057;-62
2021/06/11 06:03:06;;;;;;;5.78;2.63;;;;;;;;;;5133627;27;20031;-62
2021/06/11 06:05:32;;;;;;;6.75;3.03;;;;;;;;;;5133237;27;20067;-62
2021/06/11 06:07:58;;;;;;;9.65;2.97;;;;;;;;;;5133316;27;20027;-61
2021/06/11 06:10:24;;;;;;;6.70;2.70;;;;;;;;;;5133282;27;20023;-63
2021/06/11 06:12:50;;;;;;;4.85;2.85;;;;;;;;;;5133169;27;20019;-62
2021/06/11 06:15:16;;;;;;;6.70;2.80;;;;;;;;;;5133254;27;20615;-62
2021/06/11 06:17:42;;;;;;;7.32;3.30;;;;;;;;;;5114718;27;20384;-62
2021/06/11 06:20:09;;;;;;;5.93;2.83;;;;;;;;;;5133059;27;20458;-62
2021/06/11 06:22:35;;;;;;;10.85;2.58;;;;;;;;;;5133136;27;20481;-62
2021/06/11 06:25:02;;;;;;;6.55;2.70;;;;;;;;;;5133047;27;20509;-62
2021/06/11 06:27:28;;;;;;;6.10;2.47;;;;;;;;;;5132834;27;20023;-62
2021/06/11 06:29:54;;;;;;;9.48;3.13;;;;;;;;;;5132799;27;20412;-62
2021/06/11 06:32:20;;;;;;;7.03;3.38;;;;;;;;;;5132553;27;20113;-62
2021/06/11 06:34:46;;;;;;;8.95;3.30;;;;;;;;;;5132965;27;20450;-62
2021/06/11 06:37:14;;;;;;;6.40;3.10;;;;;;;;;;5132821;27;20020;-62
2021/06/11 06:39:40;;;;;;;5.70;2.63;;;;;;;;;;5132879;27;20023;-63
2021/06/11 06:42:06;;;;;;;7.75;2.92;;;;;;;;;;5143504;27;20118;-63
2021/06/11 06:44:33;;;;;;;8.45;2.97;;;;;;;;;;5132461;27;20015;-62
2021/06/11 06:46:59;;;;;;;7.50;2.50;;;;;;;;;;5113443;27;20034;-62
2021/06/11 06:49:25;;;;;;;7.65;3.30;;;;;;;;;;5132389;27;20118;-62
2021/06/11 06:51:51;;;;;;;7.03;2.47;;;;;;;;;;5132489;27;20023;-62
2021/06/11 06:54:17;;;;;;;5.03;2.53;;;;;;;;;;5132653;27;20022;-63
2021/06/11 06:56:44;;;;;;;5.55;2.40;;;;;;;;;;5143351;27;20464;-62
2021/06/11 06:59:10;;;;;;;6.50;2.83;;;;;;;;;;5153296;27;20465;-62
2021/06/11 07:01:36;;;;;;;4.93;2.38;;;;;;;;;;5153219;27;20025;-62
2021/06/11 07:04:02;;;;;;;8.00;2.90;;;;;;;;;;5153173;27;20447;-62
2021/06/11 07:06:28;;;;;;;3.75;2.22;;;;;;;;;;5153184;27;20079;-62
2021/06/11 07:08:54;;;;;;;6.05;2.95;;;;;;;;;;5153231;27;20023;-62
2021/06/11 07:11:21;;;;;;;7.57;3.15;;;;;;;;;;5153274;27;20432;-62
2021/06/11 07:13:48;;;;;;;5.90;2.53;;;;;;;;;;5153347;27;20097;-61
2021/06/11 07:16:14;;;;;;;10.38;2.70;;;;;;;;;;5153094;27;20033;-61
2021/06/11 07:18:40;;;;;;;6.47;2.55;;;;;;;;;;5153032;27;20102;-61
2021/06/11 07:21:07;;;;;;;7.22;2.95;;;;;;;;;;5153226;27;20517;-63
2021/06/11 07:23:33;;;;;;;6.30;2.42;;;;;;;;;;5153232;27;20015;-62
2021/06/11 07:26:05;;;;;;;16.13;2.95;;;;;;;;;;5151781;27;20029;-62
2021/06/11 07:28:31;;;;;;;7.25;2.85;;;;;;;;;;5155058;27;20034;-62
2021/06/11 07:30:58;;;;;;;10.05;2.92;;;;;;;;;;5151761;27;20481;-61
2021/06/11 07:33:24;;;;;;;7.63;2.50;;;;;;;;;;5152429;27;20014;-62
2021/06/11 07:35:50;;;;;;;6.30;2.70;;;;;;;;;;5145865;27;20097;-61
2021/06/11 07:38:16;;;;;;;9.98;2.72;;;;;;;;;;5134001;27;20015;-62
2021/06/11 07:40:44;;;;;;;7.28;2.60;;;;;;;;;;5152536;27;20037;-62
2021/06/11 07:43:10;;;;;;;10.82;2.83;;;;;;;;;;5152714;27;20485;-62
2021/06/11 07:45:36;;;;;;;7.30;2.53;;;;;;;;;;5152945;27;20045;-62
2021/06/11 07:48:02;;;;;;;11.70;2.40;;;;;;;;;;5152986;27;20019;-62
2021/06/11 07:50:29;;;;;;;13.93;2.72;;;;;;;;;;5152864;27;20030;-62
2021/06/11 07:52:55;;;;;;;4.90;2.00;;;;;;;;;;5134190;27;20015;-62
2021/06/11 07:55:21;;;;;;;7.57;2.85;;;;;;;;;;5153874;27;20034;-62
2021/06/11 07:57:47;;;;;;;6.68;2.40;;;;;;;;;;5154470;27;20033;-62
2021/06/11 08:00:13;;;;;;;7.85;2.85;;;;;;;;;;5156896;27;20067;-62
2021/06/11 08:02:41;;;;;;;4.70;2.13;;;;;;;;;;5156983;27;20030;-62
2021/06/11 08:05:08;;;;;;;12.93;2.35;;;;;;;;;;5154430;27;20625;-62
2021/06/11 08:07:34;;;;;;;6.65;2.28;;;;;;;;;;5147882;27;20525;-62
2021/06/11 08:10:00;;;;;;;8.27;2.58;;;;;;;;;;5135607;27;20647;-62
2021/06/11 08:12:26;;;;;;;6.03;2.15;;;;;;;;;;5149557;27;20477;-62
2021/06/11 08:14:52;;;;;;;4.65;2.10;;;;;;;;;;5156468;27;20024;-62
2021/06/11 08:17:19;;;;;;;5.72;2.03;;;;;;;;;;5156508;27;20052;-62
2021/06/11 08:19:45;;;;;;;6.00;2.30;;;;;;;;;;5156679;27;20026;-62
2021/06/11 08:22:11;;;;;;;7.55;2.40;;;;;;;;;;5137936;27;20377;-62
2021/06/11 08:24:37;;;;;;;4.97;2.50;;;;;;;;;;5156432;27;20057;-62
2021/06/11 08:27:03;;;;;;;5.85;2.70;;;;;;;;;;5156401;27;20030;-62
2021/06/11 08:29:29;;;;;;;4.82;2.03;;;;;;;;;;5156154;27;20079;-62
2021/06/11 08:31:56;;;;;;;6.03;2.60;;;;;;;;;;5156405;27;20022;-62
2021/06/11 08:34:22;;;;;;;4.93;2.00;;;;;;;;;;5156271;27;20018;-62
2021/06/11 08:36:48;;;;;;;4.90;2.42;;;;;;;;;;5156164;27;20018;-62
2021/06/11 08:39:14;;;;;;;4.90;1.98;;;;;;;;;;5156140;27;20027;-62
2021/06/11 08:41:40;;;;;;;8.23;2.22;;;;;;;;;;5156006;27;20513;-62
2021/06/11 08:44:07;;;;;;;5.75;2.55;;;;;;;;;;5155929;27;20029;-62
2021/06/11 08:46:34;;;;;;;4.78;2.10;;;;;;;;;;5155950;27;20105;-62
2021/06/11 08:49:02;;;;;;;6.65;2.40;;;;;;;;;;5156022;27;20559;-62
2021/06/11 08:51:30;;;;;;;4.88;2.22;;;;;;;;;;5155944;27;20465;-62
2021/06/11 08:53:57;;;;;;;5.03;2.50;;;;;;;;;;5156042;27;20371;-62
2021/06/11 08:56:23;;;;;;;5.95;2.35;;;;;;;;;;5155766;27;20094;-62
2021/06/11 08:58:50;;;;;;;4.43;2.15;;;;;;;;;;5155824;27;20051;-62
2021/06/11 09:01:16;;;;;;;6.28;2.20;;;;;;;;;;5155627;27;20029;-62
2021/06/11 09:03:49;;;;;;;3.92;1.98;;;;;;;;;;5155649;27;20029;-62
2021/06/11 09:06:17;;;;;;;4.55;2.50;;;;;;;;;;5155549;27;20022;-63
2021/06/11 09:09:10;;;;;;;4.32;1.98;;;;;;;;;;5155425;27;20109;-62
2021/06/11 09:11:36;;;;;;;4.82;2.17;;;;;;;;;;5151230;27;20026;-62
2021/06/11 09:14:02;;;;;;;5.90;2.00;;;;;;;;;;5155352;27;20019;-62
2021/06/11 09:16:29;;;;;;;4.95;2.10;;;;;;;;;;5155355;27;20079;-62
2021/06/11 09:18:59;;;;;;;7.47;2.38;;;;;;;;;;5155379;27;20019;-62
2021/06/11 09:21:28;;;;;;;6.10;2.40;;;;;;;;;;5155316;27;20038;-62
2021/06/11 09:26:58;;;;;;;5.22;2.60;;;;;;;;;;5155011;27;20109;-62
2021/06/11 09:29:32;;;;;;;5.80;2.42;;;;;;;;;;5154934;27;20027;-61
2021/06/11 09:32:11;;;;;;;7.13;2.67;;;;;;;;;;5155044;27;20019;-62
2021/06/11 09:34:37;;;;;;;8.90;3.10;;;;;;;;;;5155026;27;20476;-62
2021/06/11 09:37:07;;;;;;;6.22;3.00;;;;;;;;;;5154948;27;20023;-62
2021/06/11 09:39:39;;;;;;;7.35;2.78;;;;;;;;;;5154749;27;20109;-62
2021/06/11 09:42:07;;;;;;;6.30;2.83;;;;;;;;;;5154609;27;20114;-62
2021/06/11 09:44:33;;;;;;;6.43;2.70;;;;;;;;;;5154734;27;20023;-62
2021/06/11 09:46:59;;;;;;;7.30;2.63;;;;;;;;;;5136306;27;20047;-62
2021/06/11 09:49:28;;;;;;;5.78;2.88;;;;;;;;;;5154585;27;20031;-61
2021/06/11 09:52:07;;;;;;;6.22;2.53;;;;;;;;;;5154926;27;20022;-62
2021/06/11 09:54:34;;;;;;;5.78;3.00;;;;;;;;;;5154790;27;20096;-62
2021/06/11 09:57:19;;;;;;;8.38;2.42;;;;;;;;;;5154692;27;20030;-62
2021/06/11 09:59:45;;;;;;;6.05;2.60;;;;;;;;;;5154660;27;20151;-62
2021/06/11 10:02:15;;;;;;;6.40;2.72;;;;;;;;;;5154624;27;20027;-62
2021/06/11 10:04:42;;;;;;;7.15;2.85;;;;;;;;;;5154527;27;20545;-62
2021/06/11 10:07:10;;;;;;;8.82;3.20;;;;;;;;;;5135721;27;20029;-62
2021/06/11 10:09:37;;;;;;;8.25;3.00;;;;;;;;;;5154427;27;20415;-61
2021/06/11 10:12:03;;;;;;;6.18;2.67;;;;;;;;;;5154303;27;20019;-61
2021/06/11 10:14:30;;;;;;;10.93;3.00;;;;;;;;;;5141992;27;20027;-63
2021/06/11 10:16:56;;;;;;;8.63;2.90;;;;;;;;;;5119426;27;20037;-61
2021/06/11 10:19:22;;;;;;;5.60;2.38;;;;;;;;;;5146341;27;20351;-61
2021/06/11 10:21:48;;;;;;;7.85;2.53;;;;;;;;;;5132403;27;20072;-62
2021/06/11 10:24:15;;;;;;;5.40;2.70;;;;;;;;;;5133141;27;20099;-62
2021/06/11 10:26:42;;;;;;;8.95;3.50;;;;;;;;;;5133267;27;20023;-65
2021/06/11 10:29:08;;;;;;;5.82;3.15;;;;;;;;;;5132838;27;20542;-62
2021/06/11 10:31:38;;;;;;;10.07;2.97;;;;;;;;;;5133279;27;20501;-62
2021/06/11 10:34:04;;;;;;;9.68;3.25;;;;;;;;;;5132954;27;20047;-62
2021/06/11 10:36:32;;;;;;;7.03;3.05;;;;;;;;;;5132559;27;20469;-62
2021/06/11 10:39:08;;;;;;;6.88;3.08;;;;;;;;;;5132738;27;20120;-63
2021/06/11 10:41:53;;;;;;;11.68;3.17;;;;;;;;;;5132880;27;20039;-63
2021/06/11 10:44:31;;;;;;;7.85;3.08;;;;;;;;;;5132959;27;20023;-64
2021/06/11 10:47:15;;;;;;;7.40;2.90;;;;;;;;;;5132970;27;20099;-62
2021/06/11 10:49:57;;;;;;;5.85;2.78;;;;;;;;;;5132662;27;20458;-62
2021/06/11 10:52:54;;;;;;;7.83;3.40;;;;;;;;;;5114171;27;20019;-62
2021/06/11 10:55:21;;;;;;;8.13;3.20;;;;;;;;;;5115724;27;20049;-62
2021/06/11 10:57:53;;;;;;;9.98;3.05;;;;;;;;;;5132633;27;20018;-62
2021/06/11 11:00:22;;;;;;;7.80;3.33;;;;;;;;;;5132688;27;20359;-62
2021/06/11 11:02:50;;;;;;;6.85;3.13;;;;;;;;;;5132487;27;20023;-63
2021/06/11 11:05:31;;;;;;;10.52;3.25;;;;;;;;;;5132659;27;20022;-63
2021/06/11 11:08:00;;;;;;;7.72;3.00;;;;;;;;;;5132562;27;20047;-63
2021/06/11 11:10:39;;;;;;;7.97;3.58;;;;;;;;;;5132167;27;20063;-63
2021/06/11 11:13:06;;;;;;;9.00;2.97;;;;;;;;;;5114356;27;20613;-61
2021/06/11 11:15:40;;;;;;;5.68;2.70;;;;;;;;;;5132276;27;20067;-62
2021/06/11 11:18:07;;;;;;;6.68;3.05;;;;;;;;;;5132252;27;20103;-62
2021/06/11 11:20:34;;;;;;;4.68;2.42;;;;;;;;;;5132365;27;20072;-63
2021/06/11 11:23:08;;;;;;;8.18;2.60;;;;;;;;;;5132327;27;20023;-62
2021/06/11 11:25:34;;;;;;;6.47;2.70;;;;;;;;;;5132090;27;20102;-62
2021/06/11 11:28:01;;;;;;;7.53;2.58;;;;;;;;;;5131998;28;20489;-62
2021/06/11 11:30:28;;;;;;;7.55;2.75;;;;;;;;;;5132113;28;20622;-62
2021/06/11 11:32:55;;;;;;;7.50;2.45;;;;;;;;;;5133544;27;20492;-62
2021/06/11 11:35:22;;;;;;;6.38;2.67;;;;;;;;;;5136349;27;20655;-62
2021/06/11 11:37:51;;;;;;;7.35;2.38;;;;;;;;;;5153246;27;20023;-61
2021/06/11 11:40:17;;;;;;;7.80;2.40;;;;;;;;;;5156956;27;20018;-61
2021/06/11 11:42:44;;;;;;;4.18;2.20;;;;;;;;;;5156720;27;20047;-61
2021/06/11 11:45:10;;;;;;;7.15;2.45;;;;;;;;;;5156704;27;20107;-61
2021/06/11 11:47:36;;;;;;;5.22;2.20;;;;;;;;;;5156876;27;20371;-62
2021/06/11 11:50:03;;;;;;;6.25;2.25;;;;;;;;;;5154207;27;20115;-62
2021/06/11 11:52:29;;;;;;;8.32;2.83;;;;;;;;;;5155026;27;20031;-61
2021/06/11 11:54:55;;;;;;;5.22;2.08;;;;;;;;;;5143770;27;20099;-61
2021/06/11 11:57:21;;;;;;;5.28;2.30;;;;;;;;;;5135966;27;20493;-61
2021/06/11 11:59:47;;;;;;;5.60;2.20;;;;;;;;;;5135871;27;20386;-61
2021/06/11 12:02:14;;;;;;;5.10;2.63;;;;;;;;;;5135626;27;20237;-62
2021/06/11 12:04:40;;;;;;;4.95;2.13;;;;;;;;;;5135900;27;20131;-61
2021/06/11 12:07:06;;;;;;;5.80;2.08;;;;;;;;;;5135748;27;20530;-61
2021/06/11 12:09:32;;;;;;;6.53;2.08;;;;;;;;;;5135407;27;20043;-61
2021/06/11 12:11:58;;;;;;;4.38;2.22;;;;;;;;;;5149062;27;20076;-61
2021/06/11 12:14:24;;;;;;;6.10;1.90;;;;;;;;;;5156524;27;20023;-61
2021/06/11 12:16:53;;;;;;;5.03;1.83;;;;;;;;;;5156140;27;20083;-61
2021/06/11 12:19:19;;;;;;;5.80;1.92;;;;;;;;;;5156257;27;20027;-62
2021/06/11 12:21:45;;;;;;;4.28;2.17;;;;;;;;;;5155066;27;20018;-61
2021/06/11 12:24:11;;;;;;;7.07;2.33;;;;;;;;;;5155146;27;20537;-61
2021/06/11 12:26:38;;;;;;;7.57;2.20;;;;;;;;;;5156270;27;20528;-62
2021/06/11 12:29:04;;;;;;;4.82;1.90;;;;;;;;;;5156083;27;20071;-61
2021/06/11 12:31:33;;;;;;;5.90;2.20;;;;;;;;;;5156097;27;20023;-62
2021/06/11 12:33:59;;;;;;;4.07;2.10;;;;;;;;;;5155982;27;20023;-62
2021/06/11 12:36:25;;;;;;;7.95;2.53;;;;;;;;;;5156071;27;20031;-62
2021/06/11 12:38:51;;;;;;;4.97;2.22;;;;;;;;;;5156178;27;20031;-62
2021/06/11 12:41:17;;;;;;;5.60;2.00;;;;;;;;;;5140733;27;20112;-63
2021/06/11 12:46:28;;;;;;;6.18;2.10;;;;;;;;;;5135121;27;20076;-61
2021/06/11 12:48:54;;;;;;;5.25;2.60;;;;;;;;;;5135076;27;20047;-61
2021/06/11 12:51:21;;;;;;;6.68;2.30;;;;;;;;;;5135164;27;20386;-60
2021/06/11 12:53:47;;;;;;;8.60;2.08;;;;;;;;;;5116556;27;20035;-62
2021/06/11 12:56:15;;;;;;;5.63;2.22;;;;;;;;;;5134961;27;20023;-62
2021/06/11 12:58:41;;;;;;;6.30;2.00;;;;;;;;;;5121738;27;20031;-61
2021/06/11 13:01:07;;;;;;;4.18;1.92;;;;;;;;;;5134768;27;20087;-61
2021/06/11 13:03:33;;;;;;;4.35;2.00;;;;;;;;;;5134785;27;20064;-61
2021/06/11 13:06:00;;;;;;;5.18;2.05;;;;;;;;;;5134912;27;20023;-61
2021/06/11 13:08:26;;;;;;;5.53;1.92;;;;;;;;;;5134901;27;20026;-62
2021/06/11 13:10:52;;;;;;;8.52;2.20;;;;;;;;;;5138570;27;20027;-62
2021/06/11 13:13:18;;;;;;;4.55;2.10;;;;;;;;;;5116236;27;20046;-61
2021/06/11 13:15:44;;;;;;;6.50;1.88;;;;;;;;;;5134312;27;20023;-60
2021/06/11 13:18:12;;;;;;;7.20;1.95;;;;;;;;;;5134264;27;20023;-61
2021/06/11 13:20:38;;;;;;;4.40;1.80;;;;;;;;;;5134494;27;20053;-61
2021/06/11 13:23:05;;;;;;;4.13;1.85;;;;;;;;;;5134469;27;20484;-62
2021/06/11 13:25:32;;;;;;;4.03;1.73;;;;;;;;;;5134117;27;20407;-62
2021/06/11 13:27:58;;;;;;;4.95;1.77;;;;;;;;;;5133854;27;20106;-62
2021/06/11 13:30:24;;;;;;;4.40;1.55;;;;;;;;;;5133960;27;20532;-62
2021/06/11 13:32:50;;;;;;;7.43;1.70;;;;;;;;;;5134507;27;20043;-61
2021/06/11 13:35:16;;;;;;;3.75;1.88;;;;;;;;;;5134732;27;20030;-60
2021/06/11 13:37:42;;;;;;;6.88;1.90;;;;;;;;;;5134558;27;20026;-61
2021/06/11 13:40:08;;;;;;;4.55;1.80;;;;;;;;;;5134352;27;20477;-60
2021/06/11 13:42:34;;;;;;;6.63;1.98;;;;;;;;;;5134190;27;20122;-60
2021/06/11 13:45:01;;;;;;;4.35;2.03;;;;;;;;;;5134114;27;20030;-60
2021/06/11 13:47:27;;;;;;;11.00;1.95;;;;;;;;;;5134012;27;20015;-61
2021/06/11 13:49:53;;;;;;;11.20;2.20;;;;;;;;;;5133776;27;20100;-61
2021/06/11 13:52:19;;;;;;;10.23;2.03;;;;;;;;;;5143918;27;20102;-61
2021/06/11 13:54:45;;;;;;;6.47;1.70;;;;;;;;;;5131195;27;20023;-61
2021/06/11 13:57:11;;;;;;;4.00;1.67;;;;;;;;;;5132498;27;20019;-61
2021/06/11 13:59:37;;;;;;;6.78;2.05;;;;;;;;;;5133112;27;20117;-61
2021/06/11 14:02:03;;;;;;;3.95;1.55;;;;;;;;;;5132644;27;20019;-61
2021/06/11 14:04:30;;;;;;;6.45;1.95;;;;;;;;;;5132643;27;20023;-61
2021/06/11 14:06:56;;;;;;;9.98;1.90;;;;;;;;;;5133150;27;20389;-61
2021/06/11 14:09:22;;;;;;;4.30;1.90;;;;;;;;;;5142957;27;20431;-61
2021/06/11 14:11:48;;;;;;;4.45;1.85;;;;;;;;;;5153940;27;20029;-60
2021/06/11 14:14:14;;;;;;;5.05;2.15;;;;;;;;;;5153888;27;20159;-61
2021/06/11 14:16:40;;;;;;;4.93;1.90;;;;;;;;;;5153652;27;20151;-61
2021/06/11 14:19:06;;;;;;;4.30;1.83;;;;;;;;;;5153687;27;20023;-61
2021/06/11 14:21:32;;;;;;;5.47;1.77;;;;;;;;;;5153614;27;20023;-61
2021/06/11 14:23:58;;;;;;;6.65;1.92;;;;;;;;;;5153745;27;20018;-61
2021/06/11 14:26:24;;;;;;;5.50;1.80;;;;;;;;;;5153354;27;20022;-60
2021/06/11 14:28:50;;;;;;;3.45;1.60;;;;;;;;;;5134817;27;20061;-61
2021/06/11 14:31:17;;;;;;;5.93;1.73;;;;;;;;;;5153455;27;20152;-61
2021/06/11 14:33:44;;;;;;;4.38;2.08;;;;;;;;;;5153386;27;20475;-60
2021/06/11 14:36:10;;;;;;;6.68;2.00;;;;;;;;;;5153251;27;20080;-61
2021/06/11 14:38:36;;;;;;;4.28;1.92;;;;;;;;;;5153237;27;20023;-61
2021/06/11 14:41:02;;;;;;;5.47;2.30;;;;;;;;;;5153208;27;20025;-61
2021/06/11 14:43:29;;;;;;;4.40;1.80;;;;;;;;;;5153601;27;20102;-61
2021/06/11 14:45:55;;;;;;;6.15;1.75;;;;;;;;;;5142761;27;20015;-61
2021/06/11 14:48:23;;;;;;;5.40;1.80;;;;;;;;;;5132233;27;20351;-61
2021/06/11 14:50:49;;;;;;;5.13;1.77;;;;;;;;;;5132980;27;20382;-61